createdAt,value
2023-02-27T00:01:33.953Z,97517.03
2023-02-27T00:06:36.385Z,97517.41
2023-02-27T00:11:38.586Z,97523.19
2023-02-27T00:16:40.272Z,97528.56
2023-02-27T00:21:44.438Z,97530.63
2023-02-27T00:26:46.223Z,97536.19
2023-02-27T00:31:47.951Z,97528.53
2023-02-27T00:36:49.938Z,97539.28
2023-02-27T00:41:51.712Z,97536.78
2023-02-27T00:46:53.421Z,97539.47
2023-02-27T00:51:55.232Z,97537.41
2023-02-27T00:56:58.826Z,97525.63
2023-02-27T01:02:00.551Z,97532.66
2023-02-27T01:07:03.724Z,97538.91
2023-02-27T01:12:05.793Z,97538.06
2023-02-27T01:17:07.536Z,97533.94
2023-02-27T01:22:09.243Z,97540.97
2023-02-27T01:27:11.184Z,97535.66
2023-02-27T01:32:12.946Z,97536.91
2023-02-27T01:37:14.780Z,97534.81
2023-02-27T01:42:24.343Z,97538.53
2023-02-27T01:47:26.166Z,97541.50
2023-02-27T01:52:31.281Z,97537.78
2023-02-27T01:57:32.975Z,97527.00
2023-02-27T02:02:38.692Z,97526.63
2023-02-27T02:07:41.874Z,97531.16
2023-02-27T02:12:45.072Z,97530.97
2023-02-27T02:18:00.091Z,97530.78
2023-02-27T02:23:39.640Z,97526.22
2023-02-27T02:28:59.780Z,97530.56
2023-02-27T02:34:25.737Z,97532.66
2023-02-27T02:39:37.530Z,97533.25
2023-02-27T02:45:00.142Z,97528.91
2023-02-27T02:50:23.964Z,97520.00
2023-02-27T02:55:40.864Z,97529.56
2023-02-27T03:00:48.934Z,97530.78
2023-02-27T03:06:12.841Z,97538.66
2023-02-27T03:11:14.754Z,97538.66
2023-02-27T03:16:29.803Z,97537.00
2023-02-27T03:21:38.957Z,97530.78
2023-02-27T03:26:44.652Z,97540.06
2023-02-27T03:31:56.606Z,97539.22
2023-02-27T03:37:21.996Z,97536.53
2023-02-27T03:42:39.507Z,97547.31
2023-02-27T03:47:44.396Z,97554.75
2023-02-27T03:52:46.507Z,97549.38
2023-02-27T03:57:51.779Z,97551.22
2023-02-27T04:02:56.213Z,97549.31
2023-02-27T04:08:19.111Z,97554.22
2023-02-27T04:13:26.788Z,97559.19
2023-02-27T04:18:56.661Z,97562.91
2023-02-27T04:24:13.615Z,97569.31
2023-02-27T04:29:18.614Z,97576.56
2023-02-27T04:34:40.962Z,97571.78
2023-02-27T04:39:53.389Z,97572.38
2023-02-27T04:45:00.594Z,97575.72
2023-02-27T04:50:19.571Z,97576.09
2023-02-27T04:55:30.319Z,97585.00
2023-02-27T05:00:34.641Z,97578.59
2023-02-27T05:05:38.325Z,97582.75
2023-02-27T05:10:46.772Z,97580.63
2023-02-27T05:15:58.168Z,97575.44
2023-02-27T05:21:12.496Z,97575.03
2023-02-27T05:26:24.262Z,97584.28
2023-02-27T05:31:34.426Z,97574.84
2023-02-27T05:36:57.234Z,97573.59
2023-02-27T05:42:04.821Z,97585.59
2023-02-27T05:47:12.892Z,97581.88
2023-02-27T05:52:18.179Z,97595.97
2023-02-27T05:57:29.009Z,97584.81
2023-02-27T06:02:30.893Z,97586.09
2023-02-27T06:07:33.848Z,97590.63
2023-02-27T06:12:35.638Z,97585.63
2023-02-27T06:17:37.371Z,97590.00
2023-02-27T06:22:39.045Z,97589.41
2023-02-27T06:27:40.873Z,97595.50
2023-02-27T06:32:42.593Z,97596.94
2023-02-27T06:37:44.539Z,97598.44
2023-02-27T06:42:46.610Z,97598.44
2023-02-27T06:47:48.304Z,97606.47
2023-02-27T06:52:50.110Z,97601.03
2023-02-27T06:57:51.781Z,97613.16
2023-02-27T07:02:53.582Z,97614.53
2023-02-27T07:07:56.632Z,97613.56
2023-02-27T07:13:00.344Z,97617.94
2023-02-27T07:18:02.663Z,97624.47
2023-02-27T07:23:04.814Z,97628.94
2023-02-27T07:28:06.777Z,97631.69
2023-02-27T07:33:08.818Z,97631.66
2023-02-27T07:38:10.634Z,97631.41
2023-02-27T07:43:12.685Z,97636.03
2023-02-27T07:48:14.393Z,97639.13
2023-02-27T07:53:16.178Z,97634.47
2023-02-27T07:58:18.187Z,97631.97
2023-02-27T08:03:19.871Z,97634.94
2023-02-27T08:08:21.920Z,97641.59
2023-02-27T08:13:35.947Z,97651.38
2023-02-27T08:18:45.246Z,97648.09
2023-02-27T08:23:46.948Z,97655.78
2023-02-27T08:28:48.993Z,97645.06
2023-02-27T08:33:58.035Z,97652.16
2023-02-27T08:39:09.520Z,97655.97
2023-02-27T08:44:12.908Z,97658.91
2023-02-27T08:49:14.949Z,97658.50
2023-02-27T08:54:16.964Z,97668.94
2023-02-27T08:59:18.820Z,97664.00
2023-02-27T09:04:21.017Z,97678.13
2023-02-27T09:09:23.764Z,97681.88
2023-02-27T09:14:25.811Z,97685.63
2023-02-27T09:19:27.619Z,97691.81
2023-02-27T09:24:29.500Z,97692.22
2023-02-27T09:29:31.285Z,97696.25
2023-02-27T09:34:33.364Z,97706.31
2023-02-27T09:39:36.250Z,97714.88
2023-02-27T09:44:57.625Z,97711.38
2023-02-27T09:50:28.530Z,97725.28
2023-02-27T09:55:34.974Z,97727.38
2023-02-27T10:00:53.726Z,97723.38
2023-02-27T10:06:21.384Z,97721.13
2023-02-27T10:11:56.810Z,97729.06
2023-02-27T10:17:03.788Z,97732.78
2023-02-27T10:22:12.695Z,97733.22
2023-02-27T10:27:19.281Z,97723.25
2023-02-27T10:32:26.838Z,97743.22
2023-02-27T10:37:30.362Z,97742.84
2023-02-27T10:42:36.284Z,97739.13
2023-02-27T10:47:39.683Z,97748.50
2023-02-27T10:53:02.078Z,97743.44
2023-02-27T10:58:05.006Z,97753.63
2023-02-27T11:03:16.829Z,97752.81
2023-02-27T11:08:27.362Z,97748.59
2023-02-27T11:13:32.242Z,97753.19
2023-02-27T11:18:36.049Z,97751.91
2023-02-27T11:23:38.426Z,97743.19
2023-02-27T11:28:40.277Z,97734.06
2023-02-27T11:33:50.774Z,97737.38
2023-02-27T11:38:55.133Z,97742.81
2023-02-27T11:43:58.105Z,97729.56
2023-02-27T11:49:16.696Z,97736.19
2023-02-27T11:54:34.672Z,97742.00
2023-02-27T11:59:58.320Z,97728.09
2023-02-27T12:05:14.361Z,97720.16
2023-02-27T12:10:20.579Z,97728.31
2023-02-27T12:15:29.453Z,97714.19
2023-02-27T12:20:57.568Z,97708.72
2023-02-27T12:26:32.938Z,97702.34
2023-02-27T12:31:34.707Z,97707.41
2023-02-27T12:36:36.644Z,97702.00
2023-02-27T12:41:50.463Z,97702.84
2023-02-27T12:47:24.496Z,97684.47
2023-02-27T12:52:47.938Z,97701.13
2023-02-27T12:58:06.991Z,97691.50
2023-02-27T13:03:27.731Z,97683.06
2023-02-27T13:08:54.286Z,97683.50
2023-02-27T13:14:04.022Z,97670.69
2023-02-27T13:19:15.254Z,97681.16
2023-02-27T13:24:26.197Z,97685.91
2023-02-27T13:29:41.254Z,97679.63
2023-02-27T13:34:52.355Z,97675.16
2023-02-27T13:40:01.189Z,97671.56
2023-02-27T13:45:06.619Z,97665.28
2023-02-27T13:50:17.081Z,97676.53
2023-02-27T13:55:39.993Z,97664.50
2023-02-27T14:00:41.707Z,97652.28
2023-02-27T14:05:46.274Z,97656.66
2023-02-27T14:11:09.353Z,97666.94
2023-02-27T14:16:39.760Z,97670.25
2023-02-27T14:21:56.520Z,97661.63
2023-02-27T14:26:59.556Z,97661.50
2023-02-27T14:32:08.875Z,97656.19
2023-02-27T14:37:17.148Z,97665.59
2023-02-27T14:42:50.035Z,97666.97
2023-02-27T14:47:53.010Z,97682.25
2023-02-27T14:52:55.471Z,97684.63
2023-02-27T14:58:16.080Z,97689.22
2023-02-27T15:03:24.216Z,97688.81
2023-02-27T15:08:32.732Z,97698.38
2023-02-27T15:13:38.155Z,97705.66
2023-02-27T15:18:40.664Z,97696.06
2023-02-27T15:23:42.503Z,97704.84
2023-02-27T15:28:44.376Z,97715.63
2023-02-27T15:33:46.374Z,97711.25
2023-02-27T15:39:17.257Z,97717.06
2023-02-27T15:44:26.239Z,97719.78
2023-02-27T15:49:28.040Z,97725.78
2023-02-27T15:54:35.152Z,97731.78
2023-02-27T15:59:41.927Z,97728.50
2023-02-27T16:04:45.745Z,97742.00
2023-02-27T16:09:54.517Z,97744.88
2023-02-27T16:15:18.057Z,97744.88
2023-02-27T16:20:47.612Z,97761.69
2023-02-27T16:26:06.383Z,97758.75
2023-02-27T16:31:23.511Z,97772.22
2023-02-27T16:36:28.602Z,97780.13
2023-02-27T16:41:30.438Z,97773.03
2023-02-27T16:46:32.150Z,97774.84
2023-02-27T16:51:34.810Z,97779.84
2023-02-27T16:56:38.736Z,97785.84
2023-02-27T17:01:40.697Z,97802.25
2023-02-27T17:06:42.352Z,97807.03
2023-02-27T17:11:44.092Z,97807.81
2023-02-27T17:16:47.356Z,97814.44
2023-02-27T17:21:50.484Z,97819.63
2023-02-27T17:26:52.626Z,97822.97
2023-02-27T17:31:54.765Z,97824.81
2023-02-27T17:36:56.483Z,97831.63
2023-02-27T17:41:58.155Z,97836.00
2023-02-27T17:46:59.841Z,97843.06
2023-02-27T17:52:01.674Z,97853.22
2023-02-27T17:57:04.871Z,97847.00
2023-02-27T18:02:07.913Z,97849.25
2023-02-27T18:07:09.674Z,97849.25
2023-02-27T18:12:11.420Z,97853.00
2023-02-27T18:17:13.212Z,97856.31
2023-02-27T18:22:17.984Z,97860.91
2023-02-27T18:27:20.236Z,97856.91
2023-02-27T18:32:21.979Z,97855.84
2023-02-27T18:37:23.746Z,97867.88
2023-02-27T18:42:25.472Z,97868.06
2023-02-27T18:47:30.264Z,97870.50
2023-02-27T18:52:33.224Z,97868.66
2023-02-27T18:57:36.480Z,97874.47
2023-02-27T19:02:41.743Z,97880.91
2023-02-27T19:07:44.000Z,97880.50
2023-02-27T19:12:49.754Z,97881.16
2023-02-27T19:17:51.450Z,97891.09
2023-02-27T19:22:53.646Z,97895.66
2023-02-27T19:27:56.952Z,97893.16
2023-02-27T19:32:58.757Z,97892.72
2023-02-27T19:38:00.422Z,97897.75
2023-02-27T19:43:02.263Z,97896.06
2023-02-27T19:48:04.171Z,97890.66
2023-02-27T19:53:05.883Z,97894.38
2023-02-27T19:58:08.032Z,97894.78
2023-02-27T20:03:09.942Z,97889.38
2023-02-27T20:08:12.084Z,97891.81
2023-02-27T20:13:13.904Z,97904.72
2023-02-27T20:18:15.572Z,97892.41
2023-02-27T20:23:17.740Z,97893.75
2023-02-27T20:28:19.842Z,97896.66
2023-02-27T20:33:21.521Z,97893.34
2023-02-27T20:38:23.282Z,97882.97
2023-02-27T20:43:25.052Z,97884.00
2023-02-27T20:48:26.738Z,97876.31
2023-02-27T20:53:28.445Z,97882.47
2023-02-27T20:58:30.603Z,97872.53
2023-02-27T21:03:38.634Z,97877.94
2023-02-27T21:08:46.733Z,97870.06
2023-02-27T21:13:50.015Z,97862.81
2023-02-27T21:18:53.572Z,97857.16
2023-02-27T21:23:55.915Z,97855.50
2023-02-27T21:29:00.787Z,97861.47
2023-02-27T21:34:05.606Z,97855.63
2023-02-27T21:39:07.807Z,97855.63
2023-02-27T21:44:13.237Z,97852.94
2023-02-27T21:49:17.614Z,97860.41
2023-02-27T21:54:20.408Z,97843.78
2023-02-27T21:59:22.188Z,97850.13
2023-02-27T22:04:24.394Z,97843.00
2023-02-27T22:09:26.093Z,97848.97
2023-02-27T22:14:27.979Z,97846.66
2023-02-27T22:19:29.639Z,97844.34
2023-02-27T22:24:31.608Z,97847.81
2023-02-27T22:29:33.290Z,97843.00
2023-02-27T22:34:35.054Z,97844.59
2023-02-27T22:39:36.859Z,97842.53
2023-02-27T22:44:38.534Z,97839.22
2023-02-27T22:49:40.248Z,97831.75
2023-02-27T22:54:42.017Z,97833.44
2023-02-27T22:59:43.689Z,97826.75
2023-02-27T23:04:45.379Z,97822.59
2023-02-27T23:09:47.082Z,97818.03
2023-02-27T23:14:48.781Z,97813.66
2023-02-27T23:19:50.438Z,97812.66
2023-02-27T23:24:52.290Z,97808.84
2023-02-27T23:29:54.197Z,97815.84
2023-02-27T23:34:55.974Z,97814.00
2023-02-27T23:39:58.040Z,97807.09
2023-02-27T23:45:22.713Z,97804.16
2023-02-27T23:50:27.875Z,97804.94
2023-02-27T23:55:32.400Z,97804.66
